createdAt,value
2023-02-19T00:01:43.607Z,11.35
2023-02-19T00:04:47.056Z,11.32
2023-02-19T00:07:50.482Z,11.27
2023-02-19T00:10:54.246Z,11.34
2023-02-19T00:13:59.058Z,11.30
2023-02-19T00:17:02.387Z,11.52
2023-02-19T00:20:06.657Z,11.32
2023-02-19T00:23:10.234Z,11.10
2023-02-19T00:26:18.446Z,11.43
2023-02-19T00:29:24.908Z,11.05
2023-02-19T00:32:28.185Z,11.24
2023-02-19T00:35:34.814Z,11.11
2023-02-19T00:38:39.401Z,11.10
2023-02-19T00:41:43.223Z,10.91
2023-02-19T00:44:46.361Z,10.73
2023-02-19T00:47:49.963Z,10.68
2023-02-19T00:50:53.244Z,10.61
2023-02-19T00:53:56.707Z,10.14
2023-02-19T00:57:00.308Z,10.51
2023-02-19T01:00:05.058Z,10.49
2023-02-19T01:03:08.430Z,10.32
2023-02-19T01:06:14.827Z,10.41
2023-02-19T01:09:18.107Z,10.35
2023-02-19T01:12:21.824Z,10.22
2023-02-19T01:15:25.310Z,9.93
2023-02-19T01:18:29.093Z,10.33
2023-02-19T01:21:32.447Z,10.33
2023-02-19T01:24:35.826Z,10.43
2023-02-19T01:27:39.005Z,10.34
2023-02-19T01:30:45.249Z,10.50
2023-02-19T01:33:54.569Z,10.55
2023-02-19T01:36:58.334Z,10.72
2023-02-19T01:40:01.808Z,10.67
2023-02-19T01:43:11.064Z,10.59
2023-02-19T01:46:16.977Z,10.66
2023-02-19T01:49:35.522Z,10.72
2023-02-19T01:52:38.822Z,10.71
2023-02-19T01:55:44.869Z,10.46
2023-02-19T01:58:48.666Z,10.43
2023-02-19T02:01:52.522Z,10.37
2023-02-19T02:05:00.050Z,10.61
2023-02-19T02:08:39.214Z,10.46
2023-02-19T02:11:52.573Z,10.36
2023-02-19T02:14:56.701Z,10.70
2023-02-19T02:18:11.131Z,10.61
2023-02-19T02:21:52.082Z,10.98
2023-02-19T02:25:17.681Z,10.87
2023-02-19T02:28:49.243Z,10.66
2023-02-19T02:32:05.847Z,10.47
2023-02-19T02:35:19.367Z,10.76
2023-02-19T02:38:29.281Z,10.41
2023-02-19T02:41:33.822Z,10.22
2023-02-19T02:44:39.948Z,10.30
2023-02-19T02:47:56.642Z,10.18
2023-02-19T02:51:08.925Z,10.14
2023-02-19T02:54:51.260Z,10.36
2023-02-19T02:57:54.906Z,10.35
2023-02-19T03:01:22.815Z,9.87
2023-02-19T03:05:15.615Z,9.76
2023-02-19T03:08:23.866Z,9.32
2023-02-19T03:11:49.979Z,8.88
2023-02-19T03:15:18.176Z,8.55
2023-02-19T03:18:43.370Z,8.40
2023-02-19T03:21:55.459Z,8.28
2023-02-19T03:25:22.252Z,8.38
2023-02-19T03:28:48.048Z,8.17
2023-02-19T03:32:00.739Z,7.95
2023-02-19T03:35:17.005Z,8.43
2023-02-19T03:38:27.823Z,8.93
2023-02-19T03:41:39.902Z,8.79
2023-02-19T03:45:14.387Z,9.02
2023-02-19T03:48:57.405Z,9.26
2023-02-19T03:52:06.266Z,9.83
2023-02-19T03:55:38.982Z,10.17
2023-02-19T03:58:54.897Z,10.00
2023-02-19T04:02:13.916Z,10.02
2023-02-19T04:05:22.278Z,9.89
2023-02-19T04:08:30.635Z,9.94
2023-02-19T04:11:36.188Z,9.98
2023-02-19T04:14:50.388Z,10.09
2023-02-19T04:18:01.182Z,10.12
2023-02-19T04:21:11.265Z,10.38
2023-02-19T04:24:22.063Z,10.45
2023-02-19T04:27:25.293Z,10.34
2023-02-19T04:30:29.086Z,10.35
2023-02-19T04:33:32.434Z,10.21
2023-02-19T04:36:36.109Z,10.16
2023-02-19T04:39:39.287Z,9.77
2023-02-19T04:42:42.840Z,9.55
2023-02-19T04:45:46.362Z,9.32
2023-02-19T04:48:50.115Z,9.27
2023-02-19T04:51:53.255Z,9.09
2023-02-19T04:54:56.651Z,8.93
2023-02-19T04:58:00.645Z,8.67
2023-02-19T05:01:04.674Z,8.58
2023-02-19T05:04:07.857Z,8.44
2023-02-19T05:07:11.428Z,8.24
2023-02-19T05:10:15.225Z,7.97
2023-02-19T05:13:18.780Z,7.75
2023-02-19T05:16:22.352Z,7.65
2023-02-19T05:19:25.930Z,7.66
2023-02-19T05:22:30.389Z,7.96
2023-02-19T05:25:33.842Z,8.17
2023-02-19T05:28:37.286Z,8.35
2023-02-19T05:31:41.772Z,8.35
2023-02-19T05:34:45.142Z,8.26
2023-02-19T05:37:48.548Z,8.16
2023-02-19T05:40:51.922Z,8.09
2023-02-19T05:43:57.236Z,7.93
2023-02-19T05:47:00.379Z,7.79
2023-02-19T05:50:03.965Z,7.78
2023-02-19T05:53:07.138Z,7.70
2023-02-19T05:56:34.698Z,8.04
2023-02-19T05:59:37.991Z,8.65
2023-02-19T06:02:41.694Z,8.86
2023-02-19T06:05:45.222Z,8.83
2023-02-19T06:08:50.503Z,9.14
2023-02-19T06:11:54.576Z,9.12
2023-02-19T06:14:58.008Z,9.07
2023-02-19T06:18:02.705Z,8.89
2023-02-19T06:21:09.118Z,9.13
2023-02-19T06:24:12.821Z,9.08
2023-02-19T06:27:16.115Z,9.07
2023-02-19T06:30:19.844Z,9.16
2023-02-19T06:33:23.243Z,9.22
2023-02-19T06:36:26.841Z,9.21
2023-02-19T06:39:30.090Z,9.27
2023-02-19T06:42:33.547Z,9.27
2023-02-19T06:45:36.759Z,9.36
2023-02-19T06:48:42.377Z,9.38
2023-02-19T06:51:45.935Z,9.47
2023-02-19T06:54:49.427Z,9.47
2023-02-19T06:57:52.635Z,9.51
2023-02-19T07:00:56.358Z,9.50
2023-02-19T07:03:59.793Z,9.51
2023-02-19T07:07:03.264Z,9.54
2023-02-19T07:10:07.295Z,9.48
2023-02-19T07:13:11.882Z,9.54
2023-02-19T07:16:15.730Z,9.61
2023-02-19T07:19:19.219Z,9.60
2023-02-19T07:22:22.450Z,9.67
2023-02-19T07:25:26.039Z,9.71
2023-02-19T07:28:29.396Z,9.79
2023-02-19T07:31:33.043Z,9.81
2023-02-19T07:34:37.500Z,9.75
2023-02-19T07:37:42.916Z,9.94
2023-02-19T07:40:54.460Z,10.00
2023-02-19T07:43:58.585Z,10.06
2023-02-19T07:47:01.754Z,10.15
2023-02-19T07:50:06.220Z,10.21
2023-02-19T07:53:09.288Z,10.26
2023-02-19T07:56:13.781Z,10.36
2023-02-19T07:59:22.280Z,10.40
2023-02-19T08:02:45.784Z,10.41
2023-02-19T08:05:53.594Z,10.48
2023-02-19T08:08:58.082Z,10.54
2023-02-19T08:12:20.375Z,10.60
2023-02-19T08:15:23.494Z,10.82
2023-02-19T08:18:29.757Z,11.10
2023-02-19T08:21:34.432Z,11.17
2023-02-19T08:24:43.019Z,11.07
2023-02-19T08:27:46.204Z,10.76
2023-02-19T08:30:50.993Z,10.52
2023-02-19T08:33:55.353Z,10.37
2023-02-19T08:37:02.169Z,10.22
2023-02-19T08:40:06.539Z,10.03
2023-02-19T08:43:19.300Z,9.79
2023-02-19T08:46:23.112Z,9.70
2023-02-19T08:49:27.456Z,9.73
2023-02-19T08:52:31.189Z,9.67
2023-02-19T08:55:38.840Z,9.76
2023-02-19T08:58:46.724Z,9.77
2023-02-19T09:01:51.043Z,9.69
2023-02-19T09:04:54.209Z,9.62
2023-02-19T09:07:57.964Z,9.54
2023-02-19T09:11:03.623Z,9.47
2023-02-19T09:14:08.322Z,9.38
2023-02-19T09:17:11.734Z,9.46
2023-02-19T09:20:17.657Z,9.53
2023-02-19T09:23:21.366Z,9.58
2023-02-19T09:26:25.567Z,9.55
2023-02-19T09:29:29.294Z,9.61
2023-02-19T09:32:33.718Z,9.58
2023-02-19T09:35:40.698Z,9.57
2023-02-19T09:38:44.784Z,9.64
2023-02-19T09:41:59.428Z,9.75
2023-02-19T09:45:06.409Z,9.83
2023-02-19T09:48:12.564Z,10.58
2023-02-19T09:51:18.349Z,11.11
2023-02-19T09:54:25.636Z,10.98
2023-02-19T09:57:33.050Z,11.15
2023-02-19T10:00:38.531Z,11.56
2023-02-19T10:03:47.540Z,11.84
2023-02-19T10:06:53.085Z,11.69
2023-02-19T10:10:02.836Z,12.22
2023-02-19T10:13:34.894Z,12.59
2023-02-19T10:16:44.918Z,12.44
2023-02-19T10:19:48.518Z,12.16
2023-02-19T10:23:04.022Z,11.75
2023-02-19T10:26:07.626Z,11.19
2023-02-19T10:29:13.074Z,10.97
2023-02-19T10:32:21.155Z,11.07
2023-02-19T10:35:26.855Z,11.17
2023-02-19T10:38:39.252Z,11.44
2023-02-19T10:41:44.511Z,12.01
2023-02-19T10:44:54.372Z,11.85
2023-02-19T10:48:00.503Z,11.56
2023-02-19T10:51:09.396Z,11.32
2023-02-19T10:54:19.602Z,11.99
2023-02-19T10:57:37.922Z,12.62
2023-02-19T11:00:42.680Z,12.93
2023-02-19T11:03:52.486Z,13.19
2023-02-19T11:06:57.963Z,13.56
2023-02-19T11:10:03.183Z,13.56
2023-02-19T11:13:15.683Z,13.79
2023-02-19T11:16:19.380Z,13.62
2023-02-19T11:19:31.424Z,13.83
2023-02-19T11:22:40.114Z,14.07
2023-02-19T11:25:53.258Z,13.81
2023-02-19T11:28:58.927Z,13.96
2023-02-19T11:32:25.376Z,14.09
2023-02-19T11:35:30.626Z,14.13
2023-02-19T11:38:35.662Z,14.21
2023-02-19T11:42:07.756Z,14.38
2023-02-19T11:45:22.927Z,14.69
2023-02-19T11:49:06.883Z,14.67
2023-02-19T11:52:34.253Z,15.11
2023-02-19T11:55:58.693Z,15.06
2023-02-19T11:59:08.521Z,15.33
2023-02-19T12:02:19.233Z,15.26
2023-02-19T12:05:33.980Z,15.43
2023-02-19T12:09:07.064Z,15.41
2023-02-19T12:12:38.284Z,14.94
2023-02-19T12:16:10.892Z,14.88
2023-02-19T12:19:47.846Z,14.84
2023-02-19T12:23:03.875Z,14.40
2023-02-19T12:26:17.075Z,13.82
2023-02-19T12:29:27.148Z,13.85
2023-02-19T12:33:06.236Z,13.91
2023-02-19T12:36:33.967Z,14.02
2023-02-19T12:39:56.717Z,12.70
2023-02-19T12:43:19.873Z,10.98
2023-02-19T12:46:35.205Z,10.75
2023-02-19T12:49:49.967Z,10.62
2023-02-19T12:53:21.433Z,10.69
2023-02-19T12:56:35.635Z,10.55
2023-02-19T13:00:02.820Z,11.75
2023-02-19T13:03:25.867Z,12.62
2023-02-19T13:06:48.941Z,13.12
2023-02-19T13:10:07.022Z,13.20
2023-02-19T13:13:20.643Z,13.25
2023-02-19T13:16:26.244Z,13.22
2023-02-19T13:19:33.564Z,13.40
2023-02-19T13:23:01.417Z,12.98
2023-02-19T13:26:43.131Z,12.86
2023-02-19T13:30:02.178Z,12.30
2023-02-19T13:33:43.126Z,12.04
2023-02-19T13:36:50.121Z,12.14
2023-02-19T13:39:56.113Z,12.57
2023-02-19T13:43:07.464Z,12.62
2023-02-19T13:46:18.397Z,12.92
2023-02-19T13:49:32.102Z,13.06
2023-02-19T13:52:40.004Z,13.55
2023-02-19T13:55:47.363Z,13.59
2023-02-19T13:59:05.288Z,13.70
2023-02-19T14:02:23.503Z,13.75
2023-02-19T14:06:00.042Z,13.94
2023-02-19T14:09:05.120Z,13.96
2023-02-19T14:12:16.092Z,13.95
2023-02-19T14:15:39.879Z,13.74
2023-02-19T14:18:46.525Z,13.01
2023-02-19T14:21:50.910Z,12.87
2023-02-19T14:24:59.157Z,12.80
2023-02-19T14:28:10.831Z,13.03
2023-02-19T14:31:38.550Z,13.25
2023-02-19T14:34:46.197Z,12.72
2023-02-19T14:37:53.741Z,12.46
2023-02-19T14:40:59.279Z,12.22
2023-02-19T14:44:07.647Z,12.02
2023-02-19T14:47:19.223Z,12.08
2023-02-19T14:50:33.860Z,12.10
2023-02-19T14:53:42.529Z,12.12
2023-02-19T14:56:53.964Z,12.02
2023-02-19T15:00:05.093Z,11.89
2023-02-19T15:03:30.051Z,11.97
2023-02-19T15:06:37.026Z,11.81
2023-02-19T15:09:48.743Z,11.54
2023-02-19T15:13:02.013Z,11.33
2023-02-19T15:16:09.968Z,11.23
2023-02-19T15:19:17.161Z,10.98
2023-02-19T15:22:24.785Z,11.03
2023-02-19T15:25:40.303Z,11.06
2023-02-19T15:28:46.866Z,10.91
2023-02-19T15:31:54.814Z,10.82
2023-02-19T15:35:03.394Z,10.73
2023-02-19T15:38:14.235Z,10.79
2023-02-19T15:41:25.623Z,10.68
2023-02-19T15:44:35.364Z,10.50
2023-02-19T15:47:49.330Z,10.49
2023-02-19T15:51:09.813Z,10.49
2023-02-19T15:54:28.562Z,10.48
2023-02-19T15:57:39.660Z,10.48
2023-02-19T16:00:51.213Z,10.35
2023-02-19T16:04:02.735Z,10.40
2023-02-19T16:07:24.144Z,10.36
2023-02-19T16:10:31.633Z,10.47
2023-02-19T16:16:45.229Z,10.44
2023-02-19T16:19:57.662Z,10.46
2023-02-19T16:23:15.849Z,10.36
2023-02-19T16:26:22.799Z,10.22
2023-02-19T16:29:32.632Z,10.04
2023-02-19T16:32:37.470Z,9.99
2023-02-19T16:35:42.202Z,10.10
2023-02-19T16:39:11.121Z,10.10
2023-02-19T16:42:20.049Z,10.02
2023-02-19T16:45:28.348Z,9.84
2023-02-19T16:48:35.175Z,9.79
2023-02-19T16:51:40.758Z,9.72
2023-02-19T16:54:49.787Z,9.69
2023-02-19T16:57:56.559Z,9.49
2023-02-19T17:01:02.231Z,9.28
2023-02-19T17:04:10.621Z,9.27
2023-02-19T17:07:17.783Z,9.09
2023-02-19T17:10:26.506Z,9.06
2023-02-19T17:13:34.830Z,9.29
2023-02-19T17:16:43.374Z,9.25
2023-02-19T17:19:52.978Z,9.37
2023-02-19T17:22:59.734Z,9.48
2023-02-19T17:26:05.001Z,9.52
2023-02-19T17:29:15.895Z,9.50
2023-02-19T17:32:21.401Z,9.44
2023-02-19T17:35:27.721Z,9.24
2023-02-19T17:38:33.316Z,9.29
2023-02-19T17:41:39.714Z,9.16
2023-02-19T17:44:46.598Z,9.03
2023-02-19T17:47:53.371Z,9.06
2023-02-19T17:51:00.191Z,8.96
2023-02-19T17:54:06.321Z,9.07
2023-02-19T17:57:14.131Z,9.03
2023-02-19T18:00:23.660Z,9.07
2023-02-19T18:03:32.204Z,9.06
2023-02-19T18:06:43.169Z,9.00
2023-02-19T18:09:53.574Z,9.05
2023-02-19T18:13:02.437Z,9.00
2023-02-19T18:16:07.650Z,8.99
2023-02-19T18:19:15.308Z,8.99
2023-02-19T18:22:32.704Z,8.95
2023-02-19T18:28:45.465Z,8.73
2023-02-19T18:31:50.927Z,8.64
2023-02-19T18:35:11.337Z,8.44
2023-02-19T18:38:17.663Z,8.24
2023-02-19T18:41:28.029Z,8.37
2023-02-19T18:44:33.888Z,8.44
2023-02-19T18:47:40.775Z,8.38
2023-02-19T18:50:48.115Z,8.33
2023-02-19T18:53:53.086Z,8.47
2023-02-19T18:57:01.392Z,8.29
2023-02-19T19:00:08.804Z,8.20
2023-02-19T19:03:18.162Z,8.02
2023-02-19T19:06:24.463Z,7.98
2023-02-19T19:09:32.919Z,7.98
2023-02-19T19:12:39.314Z,7.88
2023-02-19T19:15:51.649Z,7.95
2023-02-19T19:18:59.505Z,7.98
2023-02-19T19:22:06.140Z,8.03
2023-02-19T19:25:11.751Z,8.14
2023-02-19T19:28:17.506Z,8.18
2023-02-19T19:31:25.549Z,8.16
2023-02-19T19:34:31.544Z,8.06
2023-02-19T19:37:38.437Z,8.04
2023-02-19T19:40:44.248Z,7.85
2023-02-19T19:43:49.532Z,7.74
2023-02-19T19:46:56.250Z,7.64
2023-02-19T19:50:01.252Z,7.43
2023-02-19T19:53:08.967Z,7.12
2023-02-19T19:56:14.260Z,7.32
2023-02-19T19:59:21.585Z,7.33
2023-02-19T20:02:26.608Z,7.27
2023-02-19T20:05:34.715Z,7.24
2023-02-19T20:08:42.340Z,6.98
2023-02-19T20:11:53.110Z,6.95
2023-02-19T20:14:59.500Z,6.97
2023-02-19T20:18:05.649Z,7.07
2023-02-19T20:21:12.379Z,6.93
2023-02-19T20:24:24.470Z,6.89
2023-02-19T20:27:35.558Z,6.97
2023-02-19T20:30:41.231Z,6.84
2023-02-19T20:33:48.535Z,6.73
2023-02-19T20:36:59.609Z,6.77
2023-02-19T20:40:05.897Z,6.63
2023-02-19T20:43:11.116Z,6.37
2023-02-19T20:46:16.459Z,6.43
2023-02-19T20:49:30.658Z,6.49
2023-02-19T20:52:45.569Z,6.44
2023-02-19T20:55:53.503Z,6.23
2023-02-19T20:58:58.665Z,6.12
2023-02-19T21:02:08.984Z,6.21
2023-02-19T21:05:14.190Z,6.12
2023-02-19T21:08:21.086Z,5.95
2023-02-19T21:11:27.700Z,5.76
2023-02-19T21:14:33.564Z,5.70
2023-02-19T21:17:39.592Z,5.72
2023-02-19T21:20:44.396Z,5.60
2023-02-19T21:23:48.651Z,5.57
2023-02-19T21:26:53.465Z,5.61
2023-02-19T21:29:58.191Z,5.53
2023-02-19T21:33:03.174Z,5.41
2023-02-19T21:36:08.584Z,5.37
2023-02-19T21:39:16.995Z,5.36
2023-02-19T21:42:21.954Z,5.32
2023-02-19T21:45:26.268Z,5.24
2023-02-19T21:48:31.046Z,5.32
2023-02-19T21:51:38.183Z,5.17
2023-02-19T21:54:43.721Z,5.04
2023-02-19T21:57:48.448Z,5.03
2023-02-19T22:00:54.417Z,5.05
2023-02-19T22:03:59.189Z,5.01
2023-02-19T22:07:02.407Z,4.94
2023-02-19T22:10:10.424Z,4.84
2023-02-19T22:13:16.590Z,4.59
2023-02-19T22:16:21.522Z,4.62
2023-02-19T22:19:24.636Z,4.74
2023-02-19T22:22:29.473Z,4.54
2023-02-19T22:25:32.755Z,4.50
2023-02-19T22:28:36.293Z,4.63
2023-02-19T22:31:42.458Z,4.50
2023-02-19T22:34:46.083Z,4.34
2023-02-19T22:37:49.268Z,4.34
2023-02-19T22:40:53.255Z,4.19
2023-02-19T22:43:59.056Z,4.13
2023-02-19T22:47:02.876Z,4.14
2023-02-19T22:50:07.934Z,3.93
2023-02-19T22:53:12.809Z,4.17
2023-02-19T22:56:17.940Z,4.24
2023-02-19T22:59:22.528Z,4.17
2023-02-19T23:02:26.963Z,4.03
2023-02-19T23:05:33.548Z,4.02
2023-02-19T23:08:36.832Z,4.11
2023-02-19T23:11:40.592Z,4.23
2023-02-19T23:14:43.883Z,4.06
2023-02-19T23:17:47.366Z,4.12
2023-02-19T23:20:50.631Z,4.09
2023-02-19T23:23:55.077Z,4.02
2023-02-19T23:27:00.027Z,3.97
2023-02-19T23:30:03.666Z,3.93
2023-02-19T23:33:07.499Z,3.88
2023-02-19T23:36:12.213Z,3.87
2023-02-19T23:39:18.228Z,3.81
2023-02-19T23:42:21.832Z,3.78
2023-02-19T23:45:25.367Z,3.75
2023-02-19T23:48:29.059Z,3.71
2023-02-19T23:51:32.391Z,3.62
2023-02-19T23:54:36.689Z,3.81
2023-02-19T23:57:40.088Z,3.81
